createdAt,value
2022-12-25T00:00:23.696Z,1011.05
2022-12-25T00:01:23.658Z,1011.03
2022-12-25T00:02:23.700Z,1011.04
2022-12-25T00:03:23.827Z,1011.02
2022-12-25T00:04:23.651Z,1011.06
2022-12-25T00:05:23.651Z,1011.02
2022-12-25T00:06:23.639Z,1011.03
2022-12-25T00:07:23.619Z,1011.00
2022-12-25T00:08:23.633Z,1011.00
2022-12-25T00:09:23.626Z,1011.02
2022-12-25T00:10:23.613Z,1011.04
2022-12-25T00:11:23.629Z,1011.06
2022-12-25T00:12:23.604Z,1011.05
2022-12-25T00:13:23.602Z,1011.10
2022-12-25T00:14:23.620Z,1011.12
2022-12-25T00:15:23.589Z,1011.10
2022-12-25T00:16:23.729Z,1011.06
2022-12-25T00:17:23.626Z,1011.07
2022-12-25T00:18:23.642Z,1011.07
2022-12-25T00:19:23.574Z,1011.06
2022-12-25T00:20:23.593Z,1011.11
2022-12-25T00:21:23.595Z,1011.09
2022-12-25T00:22:23.586Z,1011.09
2022-12-25T00:23:23.566Z,1011.08
2022-12-25T00:24:23.577Z,1011.10
2022-12-25T00:25:23.545Z,1011.08
2022-12-25T00:26:23.583Z,1011.06
2022-12-25T00:27:23.558Z,1011.03
2022-12-25T00:28:23.557Z,1011.02
2022-12-25T00:29:23.534Z,1011.03
2022-12-25T00:30:23.548Z,1011.01
2022-12-25T00:31:23.579Z,1011.02
2022-12-25T00:32:23.549Z,1011.00
2022-12-25T00:33:23.530Z,1010.98
2022-12-25T00:34:23.533Z,1010.99
2022-12-25T00:35:23.508Z,1010.98
2022-12-25T00:36:23.514Z,1010.98
2022-12-25T00:37:23.538Z,1010.98
2022-12-25T00:38:23.516Z,1010.99
2022-12-25T00:39:23.520Z,1010.98
2022-12-25T00:40:23.506Z,1011.01
2022-12-25T00:41:23.501Z,1011.02
2022-12-25T00:42:23.495Z,1011.00
2022-12-25T00:43:23.482Z,1010.97
2022-12-25T00:44:23.481Z,1010.97
2022-12-25T00:45:23.539Z,1010.96
2022-12-25T00:46:23.587Z,1010.99
2022-12-25T00:47:23.549Z,1011.01
2022-12-25T00:48:23.478Z,1011.00
2022-12-25T00:49:23.482Z,1011.03
2022-12-25T00:50:23.455Z,1011.05
2022-12-25T00:51:23.457Z,1011.04
2022-12-25T00:52:23.455Z,1011.05
2022-12-25T00:53:23.463Z,1011.07
2022-12-25T00:54:23.496Z,1011.10
2022-12-25T00:55:23.443Z,1011.09
2022-12-25T00:56:23.430Z,1011.11
2022-12-25T00:57:23.439Z,1011.16
2022-12-25T00:58:23.440Z,1011.17
2022-12-25T00:59:23.433Z,1011.15
2022-12-25T01:00:23.410Z,1011.13
2022-12-25T01:01:23.559Z,1011.14
2022-12-25T01:02:23.657Z,1011.13
2022-12-25T01:03:23.548Z,1011.14
2022-12-25T01:04:23.425Z,1011.13
2022-12-25T01:05:23.402Z,1011.14
2022-12-25T01:06:23.397Z,1011.16
2022-12-25T01:07:23.407Z,1011.14
2022-12-25T01:08:23.389Z,1011.14
2022-12-25T01:09:23.436Z,1011.12
2022-12-25T01:10:23.393Z,1011.14
2022-12-25T01:11:23.384Z,1011.13
2022-12-25T01:12:23.392Z,1011.11
2022-12-25T01:13:23.392Z,1011.14
2022-12-25T01:14:23.383Z,1011.13
2022-12-25T01:15:23.372Z,1011.07
2022-12-25T01:16:23.457Z,1011.10
2022-12-25T01:17:23.373Z,1011.09
2022-12-25T01:18:23.345Z,1011.14
2022-12-25T01:19:23.355Z,1011.15
2022-12-25T01:20:23.363Z,1011.16
2022-12-25T01:21:23.839Z,1011.15
2022-12-25T01:22:23.391Z,1011.12
2022-12-25T01:23:23.351Z,1011.13
2022-12-25T01:24:23.328Z,1011.15
2022-12-25T01:25:23.367Z,1011.16
2022-12-25T01:26:23.314Z,1011.16
2022-12-25T01:27:23.314Z,1011.20
2022-12-25T01:28:23.315Z,1011.17
2022-12-25T01:29:23.309Z,1011.18
2022-12-25T01:30:23.311Z,1011.16
2022-12-25T01:31:23.431Z,1011.15
2022-12-25T01:32:23.297Z,1011.12
2022-12-25T01:33:23.303Z,1011.14
2022-12-25T01:34:23.293Z,1011.15
2022-12-25T01:35:23.291Z,1011.16
2022-12-25T01:36:23.270Z,1011.14
2022-12-25T01:37:23.281Z,1011.13
2022-12-25T01:38:23.273Z,1011.13
2022-12-25T01:39:23.277Z,1011.12
2022-12-25T01:40:23.277Z,1011.14
2022-12-25T01:41:23.302Z,1011.10
2022-12-25T01:42:23.260Z,1011.09
2022-12-25T01:43:23.257Z,1011.08
2022-12-25T01:44:23.241Z,1011.05
2022-12-25T01:45:23.304Z,1011.06
2022-12-25T01:46:23.292Z,1011.06
2022-12-25T01:47:23.231Z,1011.06
2022-12-25T01:48:23.233Z,1011.05
2022-12-25T01:49:23.234Z,1011.04
2022-12-25T01:50:23.219Z,1011.04
2022-12-25T01:51:23.230Z,1011.00
2022-12-25T01:52:24.306Z,1011.02
2022-12-25T01:53:23.205Z,1011.05
2022-12-25T01:54:23.215Z,1011.06
2022-12-25T01:55:23.219Z,1011.04
2022-12-25T01:56:23.237Z,1011.10
2022-12-25T01:57:23.208Z,1011.08
2022-12-25T01:58:23.182Z,1011.10
2022-12-25T01:59:23.186Z,1011.10
2022-12-25T02:00:23.187Z,1011.14
2022-12-25T02:01:23.276Z,1011.16
2022-12-25T02:02:23.379Z,1011.14
2022-12-25T02:03:23.272Z,1011.16
2022-12-25T02:04:23.174Z,1011.16
2022-12-25T02:05:23.172Z,1011.20
2022-12-25T02:06:23.159Z,1011.16
2022-12-25T02:07:23.152Z,1011.16
2022-12-25T02:08:23.202Z,1011.17
2022-12-25T02:09:23.144Z,1011.21
2022-12-25T02:10:23.156Z,1011.25
2022-12-25T02:11:23.203Z,1011.19
2022-12-25T02:12:23.155Z,1011.18
2022-12-25T02:13:23.161Z,1011.16
2022-12-25T02:14:23.125Z,1011.15
2022-12-25T02:15:23.133Z,1011.18
2022-12-25T02:16:23.190Z,1011.18
2022-12-25T02:17:23.196Z,1011.21
2022-12-25T02:18:23.104Z,1011.21
2022-12-25T02:19:23.120Z,1011.21
2022-12-25T02:20:23.110Z,1011.19
2022-12-25T02:21:23.120Z,1011.19
2022-12-25T02:22:23.100Z,1011.15
2022-12-25T02:23:23.091Z,1011.12
2022-12-25T02:24:23.099Z,1011.12
2022-12-25T02:25:23.079Z,1011.12
2022-12-25T02:26:23.094Z,1011.13
2022-12-25T02:27:23.084Z,1011.12
2022-12-25T02:28:23.085Z,1011.09
2022-12-25T02:29:23.089Z,1011.14
2022-12-25T02:30:23.070Z,1011.16
2022-12-25T02:31:23.091Z,1011.19
2022-12-25T02:32:23.052Z,1011.20
2022-12-25T02:33:23.062Z,1011.21
2022-12-25T02:34:23.039Z,1011.25
2022-12-25T02:35:23.052Z,1011.24
2022-12-25T02:36:23.031Z,1011.26
2022-12-25T02:37:23.051Z,1011.25
2022-12-25T02:38:23.027Z,1011.22
2022-12-25T02:39:23.028Z,1011.25
2022-12-25T02:40:23.032Z,1011.22
2022-12-25T02:41:23.054Z,1011.19
2022-12-25T02:42:23.035Z,1011.16
2022-12-25T02:43:23.008Z,1011.24
2022-12-25T02:44:23.018Z,1011.20
2022-12-25T02:45:23.034Z,1011.21
2022-12-25T02:46:23.073Z,1011.27
2022-12-25T02:47:23.011Z,1011.24
2022-12-25T02:48:22.995Z,1011.33
2022-12-25T02:49:22.986Z,1011.35
2022-12-25T02:50:22.995Z,1011.31
2022-12-25T02:51:22.993Z,1011.31
2022-12-25T02:52:22.970Z,1011.25
2022-12-25T02:53:22.968Z,1011.26
2022-12-25T02:54:22.983Z,1011.24
2022-12-25T02:55:22.977Z,1011.20
2022-12-25T02:56:22.958Z,1011.19
2022-12-25T02:57:22.969Z,1011.19
2022-12-25T02:58:22.994Z,1011.19
2022-12-25T02:59:23.021Z,1011.21
2022-12-25T03:00:22.950Z,1011.23
2022-12-25T03:01:23.162Z,1011.20
2022-12-25T03:02:23.104Z,1011.20
2022-12-25T03:03:23.069Z,1011.18
2022-12-25T03:04:22.931Z,1011.17
2022-12-25T03:05:22.939Z,1011.16
2022-12-25T03:06:22.933Z,1011.18
2022-12-25T03:07:22.932Z,1011.21
2022-12-25T03:08:22.973Z,1011.17
2022-12-25T03:09:23.010Z,1011.15
2022-12-25T03:10:22.937Z,1011.16
2022-12-25T03:11:22.948Z,1011.13
2022-12-25T03:12:22.944Z,1011.15
2022-12-25T03:13:22.901Z,1011.12
2022-12-25T03:14:22.896Z,1011.07
2022-12-25T03:15:22.885Z,1011.10
2022-12-25T03:16:22.953Z,1011.06
2022-12-25T03:17:22.906Z,1011.08
2022-12-25T03:18:22.875Z,1011.07
2022-12-25T03:19:22.882Z,1011.05
2022-12-25T03:20:22.876Z,1011.03
2022-12-25T03:21:22.886Z,1011.01
2022-12-25T03:22:22.889Z,1011.00
2022-12-25T03:23:22.874Z,1011.01
2022-12-25T03:24:22.878Z,1011.05
2022-12-25T03:25:22.868Z,1011.09
2022-12-25T03:26:25.555Z,1011.08
2022-12-25T03:27:22.849Z,1011.05
2022-12-25T03:28:22.828Z,1011.06
2022-12-25T03:29:28.487Z,1011.04
2022-12-25T03:30:22.818Z,1011.03
2022-12-25T03:31:22.900Z,1010.97
2022-12-25T03:32:22.818Z,1010.95
2022-12-25T03:33:44.414Z,1010.98
2022-12-25T03:34:22.827Z,1010.96
2022-12-25T03:35:22.829Z,1010.92
2022-12-25T03:36:22.810Z,1010.87
2022-12-25T03:37:22.795Z,1010.90
2022-12-25T03:38:22.788Z,1010.85
2022-12-25T03:39:22.810Z,1010.84
2022-12-25T03:40:22.794Z,1010.80
2022-12-25T03:41:22.808Z,1010.77
2022-12-25T03:42:22.792Z,1010.77
2022-12-25T03:43:22.790Z,1010.81
2022-12-25T03:44:22.769Z,1010.84
2022-12-25T03:45:22.782Z,1010.83
2022-12-25T03:46:22.808Z,1010.80
2022-12-25T03:47:22.762Z,1010.79
2022-12-25T03:48:22.755Z,1010.76
2022-12-25T03:49:22.799Z,1010.69
2022-12-25T03:50:22.740Z,1010.68
2022-12-25T03:51:22.745Z,1010.63
2022-12-25T03:52:22.747Z,1010.68
2022-12-25T03:53:22.751Z,1010.64
2022-12-25T03:54:22.729Z,1010.65
2022-12-25T03:55:22.739Z,1010.59
2022-12-25T03:56:22.736Z,1010.57
2022-12-25T03:57:22.731Z,1010.52
2022-12-25T03:58:22.709Z,1010.49
2022-12-25T03:59:24.157Z,1010.45
2022-12-25T04:00:22.723Z,1010.43
2022-12-25T04:01:22.932Z,1010.43
2022-12-25T04:02:22.870Z,1010.42
2022-12-25T04:03:22.775Z,1010.36
2022-12-25T04:04:22.701Z,1010.28
2022-12-25T04:05:22.709Z,1010.29
2022-12-25T04:06:22.704Z,1010.26
2022-12-25T04:07:22.697Z,1010.34
2022-12-25T04:08:22.674Z,1010.37
2022-12-25T04:09:22.670Z,1010.39
2022-12-25T04:10:22.663Z,1010.44
2022-12-25T04:11:22.667Z,1010.53
2022-12-25T04:12:22.658Z,1010.56
2022-12-25T04:13:22.667Z,1010.59
2022-12-25T04:14:22.668Z,1010.59
2022-12-25T04:15:22.670Z,1010.56
2022-12-25T04:16:22.775Z,1010.57
2022-12-25T04:17:22.647Z,1010.57
2022-12-25T04:18:22.635Z,1010.55
2022-12-25T04:19:22.630Z,1010.58
2022-12-25T04:20:22.627Z,1010.61
2022-12-25T04:21:22.646Z,1010.64
2022-12-25T04:22:22.668Z,1010.68
2022-12-25T04:23:22.640Z,1010.72
2022-12-25T04:24:22.611Z,1010.71
2022-12-25T04:25:22.628Z,1010.75
2022-12-25T04:26:22.633Z,1010.75
2022-12-25T04:27:22.615Z,1010.77
2022-12-25T04:28:22.609Z,1010.77
2022-12-25T04:29:22.591Z,1010.78
2022-12-25T04:30:22.601Z,1010.73
2022-12-25T04:31:22.688Z,1010.72
2022-12-25T04:32:22.594Z,1010.72
2022-12-25T04:33:22.579Z,1010.69
2022-12-25T04:34:22.574Z,1010.69
2022-12-25T04:35:22.591Z,1010.67
2022-12-25T04:36:22.564Z,1010.67
2022-12-25T04:37:22.587Z,1010.70
2022-12-25T04:38:22.554Z,1010.71
2022-12-25T04:39:22.559Z,1010.74
2022-12-25T04:40:22.567Z,1010.76
2022-12-25T04:41:22.562Z,1010.77
2022-12-25T04:42:22.543Z,1010.75
2022-12-25T04:43:22.548Z,1010.75
2022-12-25T04:44:22.569Z,1010.69
2022-12-25T04:45:22.540Z,1010.67
2022-12-25T04:46:22.648Z,1010.63
2022-12-25T04:47:22.551Z,1010.67
2022-12-25T04:48:22.529Z,1010.66
2022-12-25T04:49:22.543Z,1010.66
2022-12-25T04:50:22.506Z,1010.69
2022-12-25T04:51:22.527Z,1010.68
2022-12-25T04:52:22.512Z,1010.69
2022-12-25T04:53:22.560Z,1010.68
2022-12-25T04:54:22.511Z,1010.63
2022-12-25T04:55:22.493Z,1010.63
2022-12-25T04:56:22.497Z,1010.63
2022-12-25T04:57:22.495Z,1010.59
2022-12-25T04:58:22.478Z,1010.60
2022-12-25T04:59:22.481Z,1010.55
2022-12-25T05:00:22.482Z,1010.54
2022-12-25T05:01:22.550Z,1010.53
2022-12-25T05:02:22.803Z,1010.51
2022-12-25T05:03:22.484Z,1010.56
2022-12-25T05:04:22.448Z,1010.53
2022-12-25T05:05:22.459Z,1010.57
2022-12-25T05:06:22.455Z,1010.55
2022-12-25T05:07:22.462Z,1010.57
2022-12-25T05:08:22.467Z,1010.53
2022-12-25T05:09:22.467Z,1010.56
2022-12-25T05:10:22.443Z,1010.51
2022-12-25T05:11:22.490Z,1010.48
2022-12-25T05:12:22.444Z,1010.42
2022-12-25T05:13:22.443Z,1010.40
2022-12-25T05:14:22.439Z,1010.39
2022-12-25T05:15:22.427Z,1010.35
2022-12-25T05:16:22.498Z,1010.35
2022-12-25T05:17:22.425Z,1010.32
2022-12-25T05:18:22.396Z,1010.36
2022-12-25T05:19:22.418Z,1010.34
2022-12-25T05:20:22.391Z,1010.35
2022-12-25T05:21:22.390Z,1010.38
2022-12-25T05:22:22.384Z,1010.38
2022-12-25T05:23:22.382Z,1010.36
2022-12-25T05:24:22.381Z,1010.29
2022-12-25T05:25:22.412Z,1010.23
2022-12-25T05:26:22.373Z,1010.20
2022-12-25T05:27:22.379Z,1010.17
2022-12-25T05:28:22.359Z,1010.12
2022-12-25T05:29:22.379Z,1010.12
2022-12-25T05:30:22.360Z,1010.12
2022-12-25T05:31:22.510Z,1010.18
2022-12-25T05:32:22.361Z,1010.13
2022-12-25T05:33:22.358Z,1010.12
2022-12-25T05:34:22.339Z,1010.12
2022-12-25T05:35:22.350Z,1010.12
2022-12-25T05:36:22.376Z,1010.10
2022-12-25T05:37:22.336Z,1010.11
2022-12-25T05:38:22.326Z,1010.11
2022-12-25T05:39:22.336Z,1010.10
2022-12-25T05:40:22.321Z,1010.11
2022-12-25T05:41:22.344Z,1010.12
2022-12-25T05:42:22.322Z,1010.16
2022-12-25T05:43:22.313Z,1010.18
2022-12-25T05:44:22.315Z,1010.14
2022-12-25T05:45:22.303Z,1010.14
2022-12-25T05:46:22.348Z,1010.16
2022-12-25T05:47:22.300Z,1010.13
2022-12-25T05:48:22.287Z,1010.14
2022-12-25T05:49:22.288Z,1010.15
2022-12-25T05:50:22.283Z,1010.11
2022-12-25T05:51:22.287Z,1010.13
2022-12-25T05:52:22.295Z,1010.02
2022-12-25T05:53:22.270Z,1010.00
2022-12-25T05:54:22.290Z,1009.94
2022-12-25T05:55:22.261Z,1009.92
2022-12-25T05:56:22.268Z,1009.95
2022-12-25T05:57:22.271Z,1009.92
2022-12-25T05:58:22.245Z,1009.95
2022-12-25T05:59:22.256Z,1009.95
2022-12-25T06:00:22.233Z,1010.00
2022-12-25T06:01:22.337Z,1010.03
2022-12-25T06:02:22.442Z,1010.01
2022-12-25T06:03:22.273Z,1009.98
2022-12-25T06:04:22.219Z,1009.90
2022-12-25T06:05:22.213Z,1009.88
2022-12-25T06:06:22.216Z,1009.85
2022-12-25T06:07:22.211Z,1009.87
2022-12-25T06:08:22.218Z,1009.82
2022-12-25T06:09:22.195Z,1009.78
2022-12-25T06:10:22.207Z,1009.75
2022-12-25T06:11:22.212Z,1009.73
2022-12-25T06:12:22.207Z,1009.73
2022-12-25T06:13:22.214Z,1009.72
2022-12-25T06:14:22.195Z,1009.76
2022-12-25T06:15:22.170Z,1009.76
2022-12-25T06:16:22.277Z,1009.85
2022-12-25T06:17:22.184Z,1009.94
2022-12-25T06:18:22.176Z,1010.03
2022-12-25T06:19:22.169Z,1010.12
2022-12-25T06:20:22.167Z,1010.16
2022-12-25T06:21:22.149Z,1010.15
2022-12-25T06:22:22.187Z,1010.05
2022-12-25T06:23:22.170Z,1009.99
2022-12-25T06:24:22.224Z,1009.95
2022-12-25T06:25:22.137Z,1009.91
2022-12-25T06:26:22.153Z,1009.77
2022-12-25T06:27:22.151Z,1009.75
2022-12-25T06:28:22.121Z,1009.70
2022-12-25T06:29:22.132Z,1009.67
2022-12-25T06:30:22.141Z,1009.70
2022-12-25T06:31:22.183Z,1009.68
2022-12-25T06:32:22.126Z,1009.74
2022-12-25T06:33:22.109Z,1009.77
2022-12-25T06:34:22.097Z,1009.72
2022-12-25T06:35:22.105Z,1009.73
2022-12-25T06:36:22.120Z,1009.64
2022-12-25T06:37:22.103Z,1009.65
2022-12-25T06:38:22.096Z,1009.64
2022-12-25T06:39:22.075Z,1009.57
2022-12-25T06:40:22.089Z,1009.48
2022-12-25T06:41:22.082Z,1009.37
2022-12-25T06:42:22.085Z,1009.32
2022-12-25T06:43:22.078Z,1009.24
2022-12-25T06:44:22.071Z,1009.20
2022-12-25T06:45:22.090Z,1009.21
2022-12-25T06:46:22.155Z,1009.25
2022-12-25T06:47:22.060Z,1009.29
2022-12-25T06:48:22.055Z,1009.33
2022-12-25T06:49:22.039Z,1009.38
2022-12-25T06:50:22.051Z,1009.36
2022-12-25T06:51:22.045Z,1009.34
2022-12-25T06:52:22.033Z,1009.36
2022-12-25T06:53:22.039Z,1009.36
2022-12-25T06:54:22.031Z,1009.41
2022-12-25T06:55:22.012Z,1009.39
2022-12-25T06:56:22.011Z,1009.39
2022-12-25T06:57:22.014Z,1009.40
2022-12-25T06:58:22.011Z,1009.36
2022-12-25T06:59:22.010Z,1009.42
2022-12-25T07:00:22.014Z,1009.42
2022-12-25T07:01:22.242Z,1009.44
2022-12-25T07:02:22.157Z,1009.39
2022-12-25T07:03:22.055Z,1009.34
2022-12-25T07:04:21.995Z,1009.31
2022-12-25T07:05:21.981Z,1009.23
2022-12-25T07:06:21.996Z,1009.12
2022-12-25T07:07:21.966Z,1009.05
2022-12-25T07:08:21.998Z,1008.98
2022-12-25T07:09:21.970Z,1008.99
2022-12-25T07:10:21.965Z,1008.91
2022-12-25T07:11:21.966Z,1008.86
2022-12-25T07:12:21.960Z,1008.85
2022-12-25T07:13:21.969Z,1008.79
2022-12-25T07:14:24.090Z,1008.82
2022-12-25T07:15:21.931Z,1008.81
2022-12-25T07:16:21.997Z,1008.83
2022-12-25T07:17:21.944Z,1008.85
2022-12-25T07:18:21.939Z,1008.83
2022-12-25T07:19:21.942Z,1008.88
2022-12-25T07:20:21.937Z,1008.87
2022-12-25T07:21:21.910Z,1008.83
2022-12-25T07:22:21.925Z,1008.87
2022-12-25T07:23:21.916Z,1008.92
2022-12-25T07:24:21.910Z,1008.97
2022-12-25T07:25:21.891Z,1008.99
2022-12-25T07:26:21.907Z,1008.94
2022-12-25T07:27:21.889Z,1008.96
2022-12-25T07:28:21.911Z,1008.89
2022-12-25T07:29:21.878Z,1008.90
2022-12-25T07:30:21.891Z,1008.86
2022-12-25T07:31:21.919Z,1008.84
2022-12-25T07:32:21.889Z,1008.86
2022-12-25T07:33:21.892Z,1008.85
2022-12-25T07:34:21.874Z,1008.81
2022-12-25T07:35:21.851Z,1008.83
2022-12-25T07:36:21.853Z,1008.89
2022-12-25T07:37:21.842Z,1008.91
2022-12-25T07:38:21.865Z,1008.92
2022-12-25T07:39:21.850Z,1008.92
2022-12-25T07:40:21.844Z,1008.93
2022-12-25T07:41:21.850Z,1008.89
2022-12-25T07:42:25.279Z,1008.82
2022-12-25T07:43:21.856Z,1008.81
2022-12-25T07:44:21.848Z,1008.78
2022-12-25T07:45:21.850Z,1008.80
2022-12-25T07:46:21.900Z,1008.80
2022-12-25T07:47:21.823Z,1008.78
2022-12-25T07:48:21.829Z,1008.84
2022-12-25T07:49:21.848Z,1008.82
2022-12-25T07:50:21.816Z,1008.92
2022-12-25T07:51:21.793Z,1008.96
2022-12-25T07:52:21.789Z,1008.96
2022-12-25T07:53:21.806Z,1008.94
2022-12-25T07:54:21.777Z,1008.93
2022-12-25T07:55:21.782Z,1008.92
2022-12-25T07:56:21.796Z,1008.96
2022-12-25T07:57:21.779Z,1008.95
2022-12-25T07:58:23.588Z,1008.94
2022-12-25T07:59:21.794Z,1008.87
2022-12-25T08:00:21.772Z,1008.86
2022-12-25T08:01:22.015Z,1008.85
2022-12-25T08:02:22.015Z,1008.83
2022-12-25T08:03:22.035Z,1008.85
2022-12-25T08:04:21.896Z,1008.82
2022-12-25T08:05:21.784Z,1008.79
2022-12-25T08:06:21.778Z,1008.73
2022-12-25T08:07:21.741Z,1008.77
2022-12-25T08:08:21.729Z,1008.80
2022-12-25T08:09:21.721Z,1008.80
2022-12-25T08:10:21.719Z,1008.80
2022-12-25T08:11:21.709Z,1008.78
2022-12-25T08:12:21.714Z,1008.78
2022-12-25T08:13:21.707Z,1008.71
2022-12-25T08:14:21.699Z,1008.73
2022-12-25T08:15:21.725Z,1008.72
2022-12-25T08:16:21.763Z,1008.66
2022-12-25T08:17:21.686Z,1008.62
2022-12-25T08:18:26.171Z,1008.58
2022-12-25T08:19:21.692Z,1008.58
2022-12-25T08:20:21.692Z,1008.58
2022-12-25T08:21:21.709Z,1008.65
2022-12-25T08:22:21.682Z,1008.64
2022-12-25T08:23:21.687Z,1008.67
2022-12-25T08:24:21.665Z,1008.66
2022-12-25T08:25:21.682Z,1008.64
2022-12-25T08:26:21.656Z,1008.63
2022-12-25T08:27:21.664Z,1008.64
2022-12-25T08:28:21.659Z,1008.56
2022-12-25T08:29:21.650Z,1008.55
2022-12-25T08:30:21.647Z,1008.56
2022-12-25T08:31:21.822Z,1008.54
2022-12-25T08:32:21.629Z,1008.50
2022-12-25T08:33:21.638Z,1008.47
2022-12-25T08:34:21.627Z,1008.39
2022-12-25T08:35:21.637Z,1008.41
2022-12-25T08:36:21.639Z,1008.32
2022-12-25T08:37:21.657Z,1008.32
2022-12-25T08:38:21.608Z,1008.33
2022-12-25T08:39:21.621Z,1008.40
2022-12-25T08:40:21.631Z,1008.38
2022-12-25T08:41:21.601Z,1008.36
2022-12-25T08:42:21.599Z,1008.44
2022-12-25T08:43:21.585Z,1008.45
2022-12-25T08:44:21.592Z,1008.52
2022-12-25T08:45:21.591Z,1008.56
2022-12-25T08:46:21.631Z,1008.56
2022-12-25T08:47:21.569Z,1008.52
2022-12-25T08:48:21.592Z,1008.51
2022-12-25T08:49:21.576Z,1008.55
2022-12-25T08:50:21.560Z,1008.61
2022-12-25T08:51:21.557Z,1008.66
2022-12-25T08:52:21.562Z,1008.70
2022-12-25T08:53:21.587Z,1008.64
2022-12-25T08:54:21.573Z,1008.68
2022-12-25T08:55:21.574Z,1008.64
2022-12-25T08:56:21.568Z,1008.62
2022-12-25T08:57:21.554Z,1008.59
2022-12-25T08:58:21.544Z,1008.53
2022-12-25T08:59:21.521Z,1008.48
2022-12-25T09:00:21.537Z,1008.38
2022-12-25T09:01:21.635Z,1008.34
2022-12-25T09:02:21.766Z,1008.35
2022-12-25T09:03:21.564Z,1008.41
2022-12-25T09:04:21.521Z,1008.49
2022-12-25T09:05:21.520Z,1008.51
2022-12-25T09:06:21.526Z,1008.47
2022-12-25T09:07:21.506Z,1008.51
2022-12-25T09:08:21.498Z,1008.51
2022-12-25T09:09:21.508Z,1008.49
2022-12-25T09:10:21.492Z,1008.46
2022-12-25T09:11:21.498Z,1008.47
2022-12-25T09:12:21.487Z,1008.43
2022-12-25T09:13:21.477Z,1008.45
2022-12-25T09:14:21.468Z,1008.45
2022-12-25T09:15:21.479Z,1008.46
2022-12-25T09:16:21.575Z,1008.45
2022-12-25T09:17:21.483Z,1008.42
2022-12-25T09:18:21.452Z,1008.32
2022-12-25T09:19:21.454Z,1008.26
2022-12-25T09:20:21.553Z,1008.24
2022-12-25T09:21:21.448Z,1008.28
2022-12-25T09:22:21.446Z,1008.30
2022-12-25T09:23:21.425Z,1008.34
2022-12-25T09:24:21.458Z,1008.36
2022-12-25T09:25:21.466Z,1008.42
2022-12-25T09:26:21.436Z,1008.40
2022-12-25T09:27:21.437Z,1008.43
2022-12-25T09:28:21.442Z,1008.48
2022-12-25T09:29:21.424Z,1008.48
2022-12-25T09:30:21.493Z,1008.56
2022-12-25T09:31:21.573Z,1008.67
2022-12-25T09:32:21.410Z,1008.65
2022-12-25T09:33:21.391Z,1008.71
2022-12-25T09:34:21.400Z,1008.72
2022-12-25T09:35:21.386Z,1008.65
2022-12-25T09:36:21.578Z,1008.67
2022-12-25T09:37:21.403Z,1008.59
2022-12-25T09:38:21.401Z,1008.63
2022-12-25T09:39:21.398Z,1008.65
2022-12-25T09:40:21.554Z,1008.61
2022-12-25T09:41:21.391Z,1008.66
2022-12-25T09:42:21.376Z,1008.67
2022-12-25T09:43:21.366Z,1008.70
2022-12-25T09:44:21.376Z,1008.77
2022-12-25T09:45:21.348Z,1008.82
2022-12-25T09:46:21.414Z,1008.81
2022-12-25T09:47:21.348Z,1008.89
2022-12-25T09:48:21.328Z,1008.90
2022-12-25T09:49:21.381Z,1008.99
2022-12-25T09:50:21.338Z,1009.02
2022-12-25T09:51:21.344Z,1009.05
2022-12-25T09:52:21.337Z,1009.06
2022-12-25T09:53:21.323Z,1009.12
2022-12-25T09:54:21.315Z,1009.10
2022-12-25T09:55:21.406Z,1009.04
2022-12-25T09:56:21.311Z,1009.01
2022-12-25T09:57:21.337Z,1008.96
2022-12-25T09:58:21.300Z,1008.96
2022-12-25T09:59:21.295Z,1008.98
2022-12-25T10:00:21.294Z,1008.94
2022-12-25T10:01:21.436Z,1008.94
2022-12-25T10:02:21.583Z,1008.89
2022-12-25T10:03:21.356Z,1008.91
2022-12-25T10:04:21.273Z,1008.95
2022-12-25T10:05:21.287Z,1008.93
2022-12-25T10:06:21.289Z,1008.92
2022-12-25T10:07:21.262Z,1008.85
2022-12-25T10:08:21.265Z,1008.91
2022-12-25T10:09:21.251Z,1008.91
2022-12-25T10:10:21.254Z,1008.91
2022-12-25T10:11:21.260Z,1008.89
2022-12-25T10:12:21.238Z,1008.89
2022-12-25T10:13:21.283Z,1008.88
2022-12-25T10:14:21.243Z,1008.94
2022-12-25T10:15:21.239Z,1008.93
2022-12-25T10:16:21.363Z,1008.92
2022-12-25T10:17:21.251Z,1008.91
2022-12-25T10:18:21.238Z,1008.86
2022-12-25T10:19:21.209Z,1008.83
2022-12-25T10:20:21.226Z,1008.75
2022-12-25T10:21:21.206Z,1008.67
2022-12-25T10:22:21.199Z,1008.67
2022-12-25T10:23:21.203Z,1008.62
2022-12-25T10:24:21.217Z,1008.54
2022-12-25T10:25:21.199Z,1008.54
2022-12-25T10:26:21.205Z,1008.55
2022-12-25T10:27:21.196Z,1008.53
2022-12-25T10:28:21.184Z,1008.48
2022-12-25T10:29:21.221Z,1008.47
2022-12-25T10:30:21.165Z,1008.45
2022-12-25T10:31:21.317Z,1008.45
2022-12-25T10:32:21.172Z,1008.43
2022-12-25T10:33:21.165Z,1008.41
2022-12-25T10:34:21.175Z,1008.36
2022-12-25T10:35:21.157Z,1008.35
2022-12-25T10:36:21.139Z,1008.33
2022-12-25T10:37:21.164Z,1008.29
2022-12-25T10:38:21.165Z,1008.24
2022-12-25T10:39:21.134Z,1008.24
2022-12-25T10:40:21.160Z,1008.22
2022-12-25T10:41:21.132Z,1008.19
2022-12-25T10:42:21.121Z,1008.15
2022-12-25T10:43:21.134Z,1008.15
2022-12-25T10:44:21.116Z,1008.18
2022-12-25T10:45:21.157Z,1008.15
2022-12-25T10:46:21.151Z,1008.17
2022-12-25T10:47:21.105Z,1008.15
2022-12-25T10:48:21.112Z,1008.12
2022-12-25T10:49:21.099Z,1008.15
2022-12-25T10:50:21.097Z,1008.15
2022-12-25T10:51:21.101Z,1008.15
2022-12-25T10:52:21.096Z,1008.18
2022-12-25T10:53:21.099Z,1008.21
2022-12-25T10:54:21.084Z,1008.20
2022-12-25T10:55:25.107Z,1008.28
2022-12-25T10:56:21.061Z,1008.28
2022-12-25T10:57:21.063Z,1008.27
2022-12-25T10:58:21.062Z,1008.30
2022-12-25T10:59:21.078Z,1008.32
2022-12-25T11:00:21.052Z,1008.29
2022-12-25T11:01:21.186Z,1008.31
2022-12-25T11:02:21.240Z,1008.25
2022-12-25T11:03:21.309Z,1008.22
2022-12-25T11:04:21.056Z,1008.22
2022-12-25T11:05:21.044Z,1008.12
2022-12-25T11:06:21.024Z,1008.09
2022-12-25T11:07:21.033Z,1008.02
2022-12-25T11:08:21.039Z,1007.97
2022-12-25T11:09:21.033Z,1007.93
2022-12-25T11:10:21.028Z,1007.90
2022-12-25T11:11:21.028Z,1007.80
2022-12-25T11:12:21.010Z,1007.76
2022-12-25T11:13:21.027Z,1007.64
2022-12-25T11:14:21.011Z,1007.49
2022-12-25T11:15:21.004Z,1007.34
2022-12-25T11:16:21.147Z,1007.28
2022-12-25T11:17:21.005Z,1007.32
2022-12-25T11:18:21.007Z,1007.30
2022-12-25T11:19:20.995Z,1007.30
2022-12-25T11:20:20.981Z,1007.27
2022-12-25T11:21:20.969Z,1007.22
2022-12-25T11:22:20.980Z,1007.18
2022-12-25T11:23:20.974Z,1007.14
2022-12-25T11:24:20.955Z,1007.14
2022-12-25T11:25:20.984Z,1007.12
2022-12-25T11:26:20.953Z,1007.14
2022-12-25T11:27:20.980Z,1007.09
2022-12-25T11:28:20.950Z,1007.04
2022-12-25T11:29:20.954Z,1007.04
2022-12-25T11:30:20.932Z,1007.04
2022-12-25T11:31:21.043Z,1007.03
2022-12-25T11:32:20.963Z,1006.99
2022-12-25T11:33:20.953Z,1006.94
2022-12-25T11:34:20.912Z,1006.88
2022-12-25T11:35:20.917Z,1006.90
2022-12-25T11:36:20.938Z,1006.87
2022-12-25T11:37:20.909Z,1006.84
2022-12-25T11:38:20.897Z,1006.79
2022-12-25T11:39:20.917Z,1006.73
2022-12-25T11:40:20.892Z,1006.70
2022-12-25T11:41:20.945Z,1006.64
2022-12-25T11:42:20.908Z,1006.62
2022-12-25T11:43:20.905Z,1006.59
2022-12-25T11:44:20.892Z,1006.58
2022-12-25T11:45:20.879Z,1006.54
2022-12-25T11:46:21.016Z,1006.50
2022-12-25T11:47:20.882Z,1006.46
2022-12-25T11:48:20.874Z,1006.40
2022-12-25T11:49:20.882Z,1006.40
2022-12-25T11:50:20.884Z,1006.40
2022-12-25T11:51:20.861Z,1006.40
2022-12-25T11:52:20.878Z,1006.46
2022-12-25T11:53:20.849Z,1006.42
2022-12-25T11:54:20.855Z,1006.49
2022-12-25T11:55:20.861Z,1006.40
2022-12-25T11:56:20.836Z,1006.43
2022-12-25T11:57:20.838Z,1006.45
2022-12-25T11:58:20.828Z,1006.43
2022-12-25T11:59:20.840Z,1006.40
2022-12-25T12:00:20.829Z,1006.37
2022-12-25T12:01:20.841Z,1006.30
2022-12-25T12:02:20.914Z,1006.24
2022-12-25T12:03:20.981Z,1006.21
2022-12-25T12:04:24.400Z,1006.18
2022-12-25T12:05:20.835Z,1006.22